• Join FlightAware (Why Join?)
  • Login
  • US Flag 
10:46AM EDT


 

Airport Tracker/Info


-or-


 

Live Flight TrackerFlight Track Log ✈ SWA1521 ✈ 24-Apr-2013 ✈ KSMF - KLAX

Flight Track Log - Related Links

Times and Time Zones

All times are in EDT time to prevent confusion due to time zone crossing. See the SWA1521 flight status page for this flight to view local times or setup timezone preferences in your user account.

Time Position Orientation Groundspeed Altitude Reporting Facility
EDT Latitude Longitude Course Direction KTS MPH feet Rate Location/Type
01:24AM 38.6667 -121.6000 109° East 157 181 1,500  Level Northern Cal TRACON
01:27AM 38.5783 -121.4186 122° Southeast 279 321 9,700 3,300 Climbing Oakland Center
01:28AM 38.5353 -121.3258 121° Southeast 296 341 13,000 3,240 Climbing Oakland Center
01:29AM 38.4842 -121.2189 121° Southeast 345 397 16,400 3,480 Climbing Oakland Center
01:30AM 38.3097 -120.9915 109° East  Level FlightAware Approximate
01:30AM 38.4250 -121.0914 121° Southeast 367 422 20,100  Level Oakland Center
01:31AM 38.3681 -120.9700 121° Southeast 395 455 23,000 2,700 Climbing Oakland Center
01:32AM 38.3092 -120.8453 121° Southeast 410 472 25,700 2,340 Climbing Oakland Center
01:33AM 38.2478 -120.7158 121° Southeast 426 490 27,800 1,980 Climbing Oakland Center
01:34AM 38.1569 -120.6064 137° Southeast 448 516 29,800 1,980 Climbing Oakland Center
01:35AM 38.0539 -120.5072 143° Southeast 462 532 31,800 2,160 Climbing Oakland Center
01:36AM 37.9558 -120.4017 140° Southeast 462 532 34,200 1,980 Climbing Oakland Center
01:37AM 37.8636 -120.2947 138° Southeast 450 518 35,900 1,680 Climbing Oakland Center
01:38AM 37.7589 -120.2011 145° Southeast 455 524 37,600 1,500 Climbing Oakland Center
01:39AM 37.6597 -120.1044 142° Southeast 450 518 39,000 660 Climbing Oakland Center
01:40AM 37.5531 -120.0147 146° Southeast 454 522 39,000  Level Oakland Center
01:41AM 37.4525 -119.9206 143° Southeast 451 519 39,000  Level Oakland Center
01:42AM 37.3517 -119.8261 143° Southeast 450 518 39,000  Level Oakland Center
01:43AM 37.2503 -119.7319 144° Southeast 451 519 39,000  Level Oakland Center
01:44AM 37.1489 -119.6386 144° Southeast 452 520 39,000  Level Oakland Center
01:45AM 37.0325 -119.5981 164° South 450 518 39,000  Level Oakland Center
01:46AM 36.9083 -119.5989 180° South 445 512 39,000  Level Oakland Center
01:47AM 36.7586 -119.6008 181° South 448 516 39,000  Level Oakland Center
01:48AM 36.6350 -119.6028 181° South 444 511 39,000  Level Oakland Center
01:49AM 36.5117 -119.6044 181° South 443 510 39,000  Level Oakland Center
01:50AM 36.3889 -119.6056 180° South 441 507 39,000  Level Oakland Center
01:51AM 36.2658 -119.6072 181° South 441 507 39,000  Level Oakland Center
01:52AM 36.1436 -119.6094 181° South 437 503 39,000  Level Oakland Center
01:53AM 36.0192 -119.6114 181° South 444 511 39,000  Level Oakland Center
01:54AM 35.8956 -119.6169 182° South 443 510 39,000  Level Oakland Center
01:55AM 35.7706 -119.6233 182° South 446 513 39,000  Level Oakland Center
01:57AM 35.5231 -119.6317 182° South 441 507 39,000  Level Oakland Center
01:58AM 35.3994 -119.6358 182° South 440 506 39,000 -60 Level Oakland Center
01:59AM 35.2769 -119.6394 181° South 439 505 38,900 -600 Descending Oakland Center
02:00AM 35.1686 -119.5697 152° Southeast 437 503 37,900 -1,740 Descending Oakland Center
02:01AM 35.0694 -119.4836 145° Southeast 437 503 35,400 -2,880 Descending Oakland Center
02:02AM 34.9669 -119.3947 145° Southeast 445 512 32,200 -3,000 Descending Oakland Center
02:03AM 34.8614 -119.3056 145° Southeast 457 526 29,400 -2,640 Descending Oakland Center
02:04AM 34.7597 -119.2192 145° Southeast 450 518 26,900 -2,520 Descending Oakland Center
02:05AM 34.6364 -119.1164 146° Southeast 428 493 23,900 -2,340 Descending Los Angeles Center
02:06AM 34.5556 -119.0469 145° Southeast 412 474 21,800 -2,220 Descending Los Angeles Center
02:07AM 34.4661 -118.9717 145° Southeast 387 445 19,500 -2,460 Descending Los Angeles Center
02:08AM 34.3650 -118.8894 146° Southeast 363 418 16,900 -2,460 Descending Los Angeles Center
02:09AM 34.2719 -118.8500 161° South 357 411 14,500 -2,100 Descending Los Angeles Center
02:10AM 34.1819 -118.8172 163° South 338 389 12,700 -1,860 Descending Los Angeles Center
02:11AM 34.0967 -118.7858 163° South 323 372 10,800 -1,380 Descending Los Angeles Center
02:12AM 34.0350 -118.7181 138° Southeast 296 341 10,000 -900 Descending Los Angeles Center
02:14AM 34.0167 -118.5667 98° East 272 313 8,500 -1,020 Descending Southern California TRACON
02:14AM 34.0178 -118.5394 87° East 269 310 8,000 -1,080 Descending Los Angeles Center
02:15AM 34.0103 -118.4603 96° East 259 298 7,000 -1,200 Descending Los Angeles Center
02:16AM 34.0236 -118.3742 79° East 263 303 5,600 -1,440 Descending Los Angeles Center
02:17AM 34.0328 -118.2872 83° East 261 300 4,100 -960 Descending Los Angeles Center
02:18AM 34.0336 -118.2153 89° East 240 276 3,700 -780 Descending Los Angeles Center
02:19AM 33.9856 -118.2261 191° South 210 242 2,600 -780 Descending Los Angeles Center
02:20AM 33.9653 -118.2772 244° Southwest 189 217 2,200 -660 Descending Los Angeles Center
02:21AM 33.9603 -118.3300 263° West 173 199 1,300 -840 Descending Los Angeles Center
02:22AM 33.9564 -118.3744 264° West 151 174 600 -600 Descending Los Angeles Center
02:23AM 33.9497 -118.4242 261° West 143 165 200 -420 Descending Los Angeles Center
02:25AM 33.9425 -118.4081 270° West  Level Estimated